createdAt,value
2022-11-02T00:00:25.138Z,1.04
2022-11-02T00:01:25.339Z,1.04
2022-11-02T00:02:25.467Z,1.04
2022-11-02T00:03:25.532Z,1.04
2022-11-02T00:04:25.723Z,1.04
2022-11-02T00:05:25.851Z,1.04
2022-11-02T00:06:25.997Z,1.04
2022-11-02T00:07:26.081Z,1.04
2022-11-02T00:08:26.222Z,1.04
2022-11-02T00:09:26.344Z,1.04
2022-11-02T00:10:26.446Z,1.04
2022-11-02T00:11:26.592Z,1.04
2022-11-02T00:12:26.753Z,1.04
2022-11-02T00:13:26.917Z,1.04
2022-11-02T00:14:27.067Z,1.04
2022-11-02T00:15:27.243Z,1.04
2022-11-02T00:16:27.364Z,1.04
2022-11-02T00:17:27.530Z,1.04
2022-11-02T00:18:27.690Z,1.04
2022-11-02T00:19:27.829Z,1.04
2022-11-02T00:20:27.972Z,1.04
2022-11-02T00:21:28.159Z,1.04
2022-11-02T00:22:28.238Z,1.04
2022-11-02T00:23:28.383Z,1.04
2022-11-02T00:24:28.541Z,1.04
2022-11-02T00:25:28.721Z,1.04
2022-11-02T00:26:28.858Z,1.04
2022-11-02T00:27:28.996Z,1.04
2022-11-02T00:28:29.135Z,1.04
2022-11-02T00:29:33.563Z,1.04
2022-11-02T00:30:29.442Z,1.04
2022-11-02T00:31:29.661Z,1.04
2022-11-02T00:32:29.990Z,1.04
2022-11-02T00:33:30.058Z,1.04
2022-11-02T00:34:30.150Z,1.04
2022-11-02T00:35:30.288Z,1.04
2022-11-02T00:36:30.404Z,1.04
2022-11-02T00:37:30.593Z,1.04
2022-11-02T00:38:30.705Z,1.04
2022-11-02T00:39:30.858Z,1.04
2022-11-02T00:40:31.020Z,1.04
2022-11-02T00:41:31.162Z,1.04
2022-11-02T00:42:31.314Z,1.04
2022-11-02T00:43:31.474Z,1.04
2022-11-02T00:44:31.616Z,1.04
2022-11-02T00:45:31.760Z,1.04
2022-11-02T00:46:31.913Z,1.04
2022-11-02T00:47:32.073Z,1.04
2022-11-02T00:48:32.172Z,1.04
2022-11-02T00:49:32.323Z,1.04
2022-11-02T00:50:32.424Z,1.04
2022-11-02T00:51:32.585Z,1.04
2022-11-02T00:52:32.744Z,1.04
2022-11-02T00:53:32.881Z,1.04
2022-11-02T00:54:33.042Z,1.04
2022-11-02T00:55:33.187Z,1.04
2022-11-02T00:56:33.348Z,1.04
2022-11-02T00:57:33.502Z,1.04
2022-11-02T00:58:33.651Z,1.04
2022-11-02T00:59:33.810Z,1.04
2022-11-02T01:00:33.937Z,1.04
2022-11-02T01:01:34.220Z,1.04
2022-11-02T01:02:34.345Z,1.04
2022-11-02T01:03:34.313Z,1.04
2022-11-02T01:04:34.475Z,1.04
2022-11-02T01:05:34.612Z,1.04
2022-11-02T01:06:34.760Z,1.04
2022-11-02T01:07:34.906Z,1.04
2022-11-02T01:08:35.065Z,1.04
2022-11-02T01:09:35.245Z,1.04
2022-11-02T01:10:35.359Z,1.04
2022-11-02T01:11:35.470Z,1.04
2022-11-02T01:12:36.006Z,1.04
2022-11-02T01:13:35.762Z,1.04
2022-11-02T01:14:36.233Z,1.04
2022-11-02T01:15:36.013Z,1.04
2022-11-02T01:16:36.636Z,1.04
2022-11-02T01:17:36.270Z,1.04
2022-11-02T01:18:36.420Z,1.04
2022-11-02T01:19:36.531Z,1.04
2022-11-02T01:20:36.688Z,1.04
2022-11-02T01:21:36.833Z,1.04
2022-11-02T01:22:36.987Z,1.04
2022-11-02T01:23:37.145Z,1.04
2022-11-02T01:24:37.289Z,1.04
2022-11-02T01:25:37.430Z,1.04
2022-11-02T01:26:37.650Z,1.04
2022-11-02T01:27:37.680Z,1.04
2022-11-02T01:28:37.814Z,1.04
2022-11-02T01:29:37.956Z,1.04
2022-11-02T01:30:38.089Z,1.04
2022-11-02T01:31:38.190Z,1.04
2022-11-02T01:32:38.347Z,1.04
2022-11-02T01:33:38.513Z,1.04
2022-11-02T01:34:38.660Z,1.04
2022-11-02T01:35:38.825Z,1.04
2022-11-02T01:36:38.962Z,1.04
2022-11-02T01:37:39.112Z,1.04
2022-11-02T01:38:39.293Z,1.04
2022-11-02T01:39:39.425Z,1.04
2022-11-02T01:40:39.530Z,1.04
2022-11-02T01:41:39.671Z,1.04
2022-11-02T01:42:39.832Z,1.04
2022-11-02T01:43:39.974Z,1.04
2022-11-02T01:44:40.126Z,1.04
2022-11-02T01:45:40.265Z,1.04
2022-11-02T01:46:40.432Z,1.04
2022-11-02T01:47:40.576Z,1.04
2022-11-02T01:48:40.731Z,1.04
2022-11-02T01:49:40.885Z,1.04
2022-11-02T01:50:41.031Z,1.04
2022-11-02T01:51:41.227Z,1.04
2022-11-02T01:52:41.420Z,1.04
2022-11-02T01:53:41.500Z,1.04
2022-11-02T01:54:41.639Z,1.04
2022-11-02T01:55:41.741Z,1.04
2022-11-02T01:56:41.920Z,1.04
2022-11-02T01:57:42.042Z,1.04
2022-11-02T01:58:42.204Z,1.04
2022-11-02T01:59:42.359Z,1.04
2022-11-02T02:00:42.501Z,1.04
2022-11-02T02:01:42.756Z,1.04
2022-11-02T02:02:42.780Z,1.04
2022-11-02T02:03:42.853Z,1.04
2022-11-02T02:04:43.004Z,1.04
2022-11-02T02:05:43.130Z,1.04
2022-11-02T02:06:43.262Z,1.04
2022-11-02T02:07:43.421Z,1.04
2022-11-02T02:08:43.568Z,1.04
2022-11-02T02:09:45.977Z,1.04
2022-11-02T02:10:43.900Z,1.04
2022-11-02T02:11:44.033Z,1.04
2022-11-02T02:12:44.169Z,1.04
2022-11-02T02:13:44.328Z,1.04
2022-11-02T02:14:44.477Z,1.04
2022-11-02T02:15:44.623Z,1.04
2022-11-02T02:16:44.821Z,1.04
2022-11-02T02:17:44.888Z,1.04
2022-11-02T02:18:45.040Z,1.04
2022-11-02T02:19:45.146Z,1.04
2022-11-02T02:20:45.289Z,1.04
2022-11-02T02:21:45.440Z,1.04
2022-11-02T02:22:45.590Z,1.04
2022-11-02T02:23:45.741Z,1.04
2022-11-02T02:24:45.902Z,1.04
2022-11-02T02:25:46.036Z,1.04
2022-11-02T02:26:46.192Z,1.04
2022-11-02T02:27:46.355Z,1.04
2022-11-02T02:28:46.451Z,1.04
2022-11-02T02:29:46.570Z,1.04
2022-11-02T02:30:46.646Z,1.04
2022-11-02T02:31:46.819Z,1.04
2022-11-02T02:32:46.969Z,1.04
2022-11-02T02:33:47.115Z,1.04
2022-11-02T02:34:47.261Z,1.04
2022-11-02T02:35:47.417Z,1.04
2022-11-02T02:36:47.555Z,1.04
2022-11-02T02:37:47.672Z,1.04
2022-11-02T02:38:47.815Z,1.04
2022-11-02T02:39:47.927Z,1.04
2022-11-02T02:40:48.069Z,1.04
2022-11-02T02:41:48.227Z,1.04
2022-11-02T02:42:48.379Z,1.04
2022-11-02T02:43:48.526Z,1.04
2022-11-02T02:44:48.679Z,1.04
2022-11-02T02:45:48.828Z,1.04
2022-11-02T02:46:51.009Z,1.04
2022-11-02T02:47:49.169Z,1.04
2022-11-02T02:48:49.286Z,1.04
2022-11-02T02:49:49.439Z,1.04
2022-11-02T02:50:49.605Z,1.04
2022-11-02T02:51:49.734Z,1.04
2022-11-02T02:52:49.909Z,1.04
2022-11-02T02:53:50.051Z,1.04
2022-11-02T02:54:50.198Z,1.04
2022-11-02T02:55:50.345Z,1.04
2022-11-02T02:56:50.457Z,1.04
2022-11-02T02:57:50.602Z,1.04
2022-11-02T02:58:50.763Z,1.04
2022-11-02T02:59:50.853Z,1.04
2022-11-02T03:00:51.006Z,1.04
2022-11-02T03:01:51.315Z,1.04
2022-11-02T03:02:51.310Z,1.04
2022-11-02T03:03:51.428Z,1.04
2022-11-02T03:04:51.525Z,1.04
2022-11-02T03:05:51.651Z,1.04
2022-11-02T03:06:51.806Z,1.04
2022-11-02T03:07:51.970Z,1.04
2022-11-02T03:08:52.074Z,1.04
2022-11-02T03:09:52.235Z,1.04
2022-11-02T03:10:52.375Z,1.04
2022-11-02T03:11:52.519Z,1.04
2022-11-02T03:12:52.678Z,1.04
2022-11-02T03:13:52.829Z,1.04
2022-11-02T03:14:52.983Z,1.04
2022-11-02T03:15:53.122Z,1.04
2022-11-02T03:16:53.342Z,1.04
2022-11-02T03:17:53.435Z,1.04
2022-11-02T03:18:53.598Z,1.04
2022-11-02T03:19:53.734Z,1.04
2022-11-02T03:20:53.844Z,1.04
2022-11-02T03:21:53.995Z,1.04
2022-11-02T03:22:54.150Z,1.04
2022-11-02T03:23:54.298Z,1.04
2022-11-02T03:24:54.445Z,1.04
2022-11-02T03:25:54.599Z,1.04
2022-11-02T03:26:54.757Z,1.04
2022-11-02T03:27:54.912Z,1.04
2022-11-02T03:28:55.044Z,1.04
2022-11-02T03:29:55.208Z,1.04
2022-11-02T03:30:55.353Z,1.04
2022-11-02T03:31:55.498Z,1.04
2022-11-02T03:32:55.653Z,1.04
2022-11-02T03:33:55.808Z,1.04
2022-11-02T03:34:55.973Z,1.04
2022-11-02T03:35:56.108Z,1.04
2022-11-02T03:36:56.251Z,1.04
2022-11-02T03:37:56.373Z,1.04
2022-11-02T03:38:56.510Z,1.04
2022-11-02T03:39:56.665Z,1.04
2022-11-02T03:40:56.813Z,1.04
2022-11-02T03:41:56.991Z,1.04
2022-11-02T03:42:57.125Z,1.04
2022-11-02T03:43:57.275Z,1.04
2022-11-02T03:44:57.433Z,1.04
2022-11-02T03:45:57.523Z,1.04
2022-11-02T03:46:57.685Z,1.04
2022-11-02T03:47:57.783Z,1.04
2022-11-02T03:48:57.944Z,1.04
2022-11-02T03:49:58.082Z,1.04
2022-11-02T03:50:58.236Z,1.04
2022-11-02T03:51:58.338Z,1.04
2022-11-02T03:52:58.491Z,1.04
2022-11-02T03:53:58.644Z,1.04
2022-11-02T03:54:58.754Z,1.04
2022-11-02T03:55:58.896Z,1.04
2022-11-02T03:56:59.081Z,1.04
2022-11-02T03:57:59.149Z,1.04
2022-11-02T03:58:59.302Z,1.04
2022-11-02T03:59:59.470Z,1.04
2022-11-02T04:00:59.604Z,1.04
2022-11-02T04:01:59.857Z,1.04
2022-11-02T04:02:59.906Z,1.04
2022-11-02T04:04:00.069Z,1.04
2022-11-02T04:05:00.216Z,1.04
2022-11-02T04:06:00.375Z,1.04
2022-11-02T04:07:00.513Z,1.04
2022-11-02T04:08:00.653Z,1.04
2022-11-02T04:09:00.803Z,1.04
2022-11-02T04:10:00.877Z,1.04
2022-11-02T04:11:01.038Z,1.04
2022-11-02T04:12:01.186Z,1.04
2022-11-02T04:13:01.283Z,1.04
2022-11-02T04:14:01.436Z,1.04
2022-11-02T04:15:01.580Z,1.04
2022-11-02T04:16:01.721Z,1.04
2022-11-02T04:17:01.890Z,1.04
2022-11-02T04:18:02.155Z,1.04
2022-11-02T04:19:02.146Z,1.04
2022-11-02T04:20:02.293Z,1.04
2022-11-02T04:21:02.441Z,1.04
2022-11-02T04:22:02.661Z,1.04
2022-11-02T04:23:02.693Z,1.04
2022-11-02T04:24:02.850Z,1.04
2022-11-02T04:25:03.004Z,1.04
2022-11-02T04:26:03.093Z,1.04
2022-11-02T04:27:03.229Z,1.04
2022-11-02T04:28:03.639Z,1.04
2022-11-02T04:29:03.537Z,1.04
2022-11-02T04:30:03.696Z,1.04
2022-11-02T04:31:03.833Z,1.04
2022-11-02T04:32:04.034Z,1.04
2022-11-02T04:33:04.163Z,1.04
2022-11-02T04:34:04.341Z,1.04
2022-11-02T04:35:04.473Z,1.04
2022-11-02T04:36:04.625Z,1.04
2022-11-02T04:37:04.724Z,1.04
2022-11-02T04:38:05.169Z,1.04
2022-11-02T04:39:05.010Z,1.04
2022-11-02T04:40:05.132Z,1.04
2022-11-02T04:41:05.233Z,1.04
2022-11-02T04:42:05.399Z,1.04
2022-11-02T04:43:05.528Z,1.04
2022-11-02T04:44:05.690Z,1.04
2022-11-02T04:45:05.867Z,1.04
2022-11-02T04:46:05.988Z,1.04
2022-11-02T04:47:06.133Z,1.04
2022-11-02T04:48:06.564Z,1.04
2022-11-02T04:49:06.383Z,1.04
2022-11-02T04:50:06.535Z,1.04
2022-11-02T04:51:06.719Z,1.04
2022-11-02T04:52:06.852Z,1.04
2022-11-02T04:53:07.013Z,1.04
2022-11-02T04:54:07.160Z,1.04
2022-11-02T04:55:07.309Z,1.04
2022-11-02T04:56:07.450Z,1.04
2022-11-02T04:57:07.562Z,1.04
2022-11-02T04:58:08.191Z,1.04
2022-11-02T04:59:07.858Z,1.04
2022-11-02T05:00:07.970Z,1.04
2022-11-02T05:01:08.225Z,1.04
2022-11-02T05:02:08.324Z,1.04
2022-11-02T05:03:09.800Z,1.04
2022-11-02T05:04:08.423Z,1.04
2022-11-02T05:05:08.565Z,1.04
2022-11-02T05:06:08.719Z,1.04
2022-11-02T05:07:08.874Z,1.04
2022-11-02T05:08:09.028Z,1.04
2022-11-02T05:09:09.180Z,1.04
2022-11-02T05:10:09.339Z,1.04
2022-11-02T05:11:09.472Z,1.04
2022-11-02T05:12:09.629Z,1.04
2022-11-02T05:13:09.788Z,1.04
2022-11-02T05:14:09.888Z,1.04
2022-11-02T05:15:10.025Z,1.04
2022-11-02T05:16:10.186Z,1.04
2022-11-02T05:17:10.383Z,1.04
2022-11-02T05:18:13.657Z,1.04
2022-11-02T05:19:10.936Z,1.04
2022-11-02T05:20:10.648Z,2
2022-11-02T05:21:10.835Z,2
2022-11-02T05:22:10.887Z,2
2022-11-02T05:23:10.974Z,2
2022-11-02T05:24:11.089Z,2
2022-11-02T05:25:11.236Z,3.04
2022-11-02T05:26:11.333Z,3.04
2022-11-02T05:27:11.488Z,4
2022-11-02T05:28:11.584Z,4
2022-11-02T05:29:11.691Z,5.04
2022-11-02T05:30:11.838Z,5.04
2022-11-02T05:31:11.941Z,7.04
2022-11-02T05:32:12.095Z,8
2022-11-02T05:33:12.215Z,10
2022-11-02T05:34:12.345Z,11.04
2022-11-02T05:35:12.505Z,14
2022-11-02T05:36:12.651Z,17.04
2022-11-02T05:37:12.872Z,20
2022-11-02T05:38:12.947Z,25.04
2022-11-02T05:39:13.087Z,30
2022-11-02T05:40:13.233Z,36
2022-11-02T05:41:13.401Z,41.04
2022-11-02T05:42:13.540Z,49.04
2022-11-02T05:43:13.680Z,57.04
2022-11-02T05:44:13.839Z,66
2022-11-02T05:45:13.986Z,75.04
2022-11-02T05:46:14.132Z,88
2022-11-02T05:47:14.300Z,99.04
2022-11-02T05:48:14.442Z,111.04
2022-11-02T05:49:14.597Z,123.04
2022-11-02T05:50:14.754Z,142
2022-11-02T05:51:14.903Z,164
2022-11-02T05:52:15.059Z,192
2022-11-02T05:53:15.165Z,219.04
2022-11-02T05:54:15.306Z,247.04
2022-11-02T05:55:15.467Z,285.12
2022-11-02T05:56:17.404Z,323.04
2022-11-02T05:57:15.793Z,366.08
2022-11-02T05:58:15.907Z,389.12
2022-11-02T05:59:16.030Z,416
2022-11-02T06:00:16.169Z,430.08
2022-11-02T06:01:16.306Z,449.28
2022-11-02T06:02:16.393Z,468.16
2022-11-02T06:03:16.549Z,499.2
2022-11-02T06:04:16.685Z,535.04
2022-11-02T06:05:16.903Z,593.28
2022-11-02T06:06:16.975Z,679.04
2022-11-02T06:07:17.116Z,731.52
2022-11-02T06:08:17.277Z,763.52
2022-11-02T06:09:17.437Z,792.32
2022-11-02T06:10:17.527Z,808.32
2022-11-02T06:11:17.676Z,825.6
2022-11-02T06:12:17.776Z,841.6
2022-11-02T06:13:17.892Z,870.4
2022-11-02T06:14:18.005Z,902.4
2022-11-02T06:15:18.097Z,937.6
2022-11-02T06:16:22.551Z,1014.4
2022-11-02T06:17:18.353Z,1080.32
2022-11-02T06:18:18.487Z,1176.32
2022-11-02T06:19:18.602Z,1254.4
2022-11-02T06:20:18.741Z,1386.24
2022-11-02T06:21:18.896Z,1472
2022-11-02T06:22:19.030Z,1564.16
2022-11-02T06:23:19.158Z,1637.12
2022-11-02T06:24:19.315Z,1704.96
2022-11-02T06:25:19.476Z,1736.96
2022-11-02T06:26:19.617Z,1770.24
2022-11-02T06:27:19.722Z,1808.64
2022-11-02T06:28:19.881Z,1900.8
2022-11-02T06:29:20.021Z,1935.36
2022-11-02T06:30:20.163Z,1922.56
2022-11-02T06:31:20.306Z,1911.04
2022-11-02T06:32:20.478Z,2007.04
2022-11-02T06:33:20.527Z,2172.16
2022-11-02T06:34:20.680Z,2376.96
2022-11-02T06:35:20.823Z,2705.92
2022-11-02T06:36:20.927Z,2607.36
2022-11-02T06:37:21.073Z,2458.88
2022-11-02T06:38:21.241Z,3471.36
2022-11-02T06:39:21.332Z,3136
2022-11-02T06:40:24.121Z,3287.04
2022-11-02T06:41:21.636Z,3484.16
2022-11-02T06:42:21.801Z,2579.2
2022-11-02T06:43:22.205Z,1995.52
2022-11-02T06:44:22.100Z,2027.52
2022-11-02T06:45:22.277Z,2086.4
2022-11-02T06:46:22.360Z,2161.92
2022-11-02T06:47:22.569Z,2242.56
2022-11-02T06:48:22.697Z,2309.12
2022-11-02T06:49:22.870Z,2455.04
2022-11-02T06:50:22.998Z,2695.68
2022-11-02T06:51:23.107Z,2908.16
2022-11-02T06:52:23.282Z,3417.6
2022-11-02T06:53:23.407Z,3857.92
2022-11-02T06:54:23.554Z,3581.44
2022-11-02T06:55:23.704Z,4049.92
2022-11-02T06:56:23.875Z,4523.52
2022-11-02T06:57:24.014Z,5140.48
2022-11-02T06:58:24.175Z,4600.32
2022-11-02T06:59:24.316Z,4874.24
2022-11-02T07:00:24.483Z,5509.12
2022-11-02T07:01:24.747Z,7188.48
2022-11-02T07:02:24.873Z,6625.28
2022-11-02T07:03:24.927Z,10670.08
2022-11-02T07:04:25.034Z,14581.76
2022-11-02T07:05:25.135Z,16424.96
2022-11-02T07:06:25.277Z,9610.24
2022-11-02T07:07:25.439Z,9625.6
2022-11-02T07:08:25.596Z,12103.68
2022-11-02T07:09:25.745Z,18176
2022-11-02T07:10:25.883Z,19435.52
2022-11-02T07:11:26.033Z,20828.16
2022-11-02T07:12:26.207Z,22958.08
2022-11-02T07:13:26.351Z,24514.56
2022-11-02T07:14:26.498Z,23900.16
2022-11-02T07:15:26.672Z,25088
2022-11-02T07:16:26.792Z,25067.52
2022-11-02T07:17:31.122Z,24719.36
2022-11-02T07:18:27.067Z,24944.64
2022-11-02T07:19:27.238Z,25169.92
2022-11-02T07:20:27.352Z,25620.48
2022-11-02T07:21:27.515Z,26255.36
2022-11-02T07:22:27.613Z,27238.4
2022-11-02T07:23:27.726Z,27627.52
2022-11-02T07:24:27.855Z,27750.4
2022-11-02T07:25:28.010Z,28323.84
2022-11-02T07:26:28.200Z,28958.72
2022-11-02T07:27:28.314Z,29777.92
2022-11-02T07:28:28.422Z,30658.56
2022-11-02T07:29:28.565Z,32829.44
2022-11-02T07:30:28.749Z,32747.52
2022-11-02T07:31:28.821Z,32808.96
2022-11-02T07:32:28.992Z,33034.24
2022-11-02T07:33:29.118Z,33505.28
2022-11-02T07:34:29.276Z,34037.76
2022-11-02T07:35:29.389Z,34877.44
2022-11-02T07:36:29.529Z,35266.56
2022-11-02T07:37:29.682Z,36106.24
2022-11-02T07:38:29.850Z,36700.16
2022-11-02T07:39:29.991Z,37150.72
2022-11-02T07:40:30.163Z,37376
2022-11-02T07:41:30.289Z,37908.48
2022-11-02T07:42:30.445Z,38502.4
2022-11-02T07:43:30.599Z,39301.12
2022-11-02T07:44:30.749Z,40386.56
2022-11-02T07:45:30.895Z,41656.32
2022-11-02T07:46:31.048Z,42024.96
2022-11-02T07:47:31.221Z,41861.12
2022-11-02T07:48:31.353Z,42475.52
2022-11-02T07:49:31.503Z,42762.24
2022-11-02T07:50:31.657Z,42844.16
2022-11-02T07:51:31.809Z,43253.76
2022-11-02T07:52:31.958Z,43745.28
2022-11-02T07:53:32.121Z,44236.8
2022-11-02T07:54:32.270Z,44851.2
2022-11-02T07:55:32.416Z,45342.72
2022-11-02T07:56:32.559Z,45670.4
2022-11-02T07:57:32.724Z,46039.04
2022-11-02T07:58:32.859Z,46653.44
2022-11-02T07:59:33.018Z,46981.12
2022-11-02T08:00:33.605Z,47677.44
2022-11-02T08:01:33.360Z,48250.88
2022-11-02T08:02:33.461Z,48783.36
2022-11-02T08:03:33.519Z,49315.84
2022-11-02T08:04:33.671Z,49725.44
2022-11-02T08:05:33.818Z,50053.12
2022-11-02T08:06:33.974Z,50667.52
2022-11-02T08:07:34.127Z,51118.08
2022-11-02T08:08:34.284Z,52264.96
2022-11-02T08:09:34.429Z,52961.28
2022-11-02T08:10:36.953Z,53739.52
2022-11-02T08:11:34.743Z,53698.56
2022-11-02T08:12:34.924Z,53534.72
2022-11-02T08:13:35.046Z,53739.52
2022-11-02T08:14:35.149Z,54476.8
2022-11-02T08:15:35.284Z,55377.92
2022-11-02T08:16:35.438Z,55746.56
2022-11-02T08:17:35.585Z,56279.04
2022-11-02T08:18:35.733Z,56156.16
2022-11-02T08:19:35.845Z,56320
2022-11-02T08:20:36.014Z,56238.08
2022-11-02T08:21:36.107Z,56565.76
2022-11-02T08:22:36.249Z,56811.52
2022-11-02T08:23:36.357Z,57589.76
2022-11-02T08:24:36.454Z,48128
2022-11-02T08:25:36.617Z,58286.08
2022-11-02T08:26:37.768Z,58368
2022-11-02T08:27:36.926Z,58982.4
2022-11-02T08:28:37.099Z,59473.92
2022-11-02T08:29:37.171Z,61972.48
2022-11-02T08:30:37.318Z,64348.16
2022-11-02T08:31:37.499Z,27115.52
2022-11-02T08:32:37.633Z,39976.96
2022-11-02T08:33:37.797Z,44277.76
2022-11-02T08:34:37.931Z,25640.96
2022-11-02T08:35:38.085Z,24043.52
2022-11-02T08:36:38.250Z,31744
2022-11-02T08:37:38.400Z,39526.4
2022-11-02T08:38:38.532Z,48005.12
2022-11-02T08:39:38.685Z,33730.56
2022-11-02T08:40:38.834Z,26050.56
2022-11-02T08:41:39.032Z,21667.84
2022-11-02T08:42:39.187Z,16640
2022-11-02T08:43:39.295Z,21934.08
2022-11-02T08:44:42.457Z,19875.84
2022-11-02T08:46:08.828Z,23429.12
2022-11-02T08:46:39.766Z,29491.2
2022-11-02T08:47:39.908Z,34242.56
2022-11-02T08:48:40.048Z,29163.52
2022-11-02T08:49:40.216Z,31395.84
2022-11-02T08:50:40.360Z,83722.24
2022-11-02T08:51:40.487Z,84951.04
2022-11-02T08:52:40.881Z,38768.64
2022-11-02T08:53:40.771Z,28323.84
2022-11-02T08:54:40.913Z,23408.64
2022-11-02T08:55:41.066Z,18124.8
2022-11-02T08:56:41.229Z,15001.6
2022-11-02T08:57:41.373Z,12697.6
2022-11-02T08:58:41.530Z,10250.24
2022-11-02T08:59:41.689Z,9410.56
2022-11-02T09:00:41.762Z,9569.28
2022-11-02T09:01:42.021Z,8094.72
2022-11-02T09:02:42.041Z,6958.08
2022-11-02T09:03:42.130Z,7162.88
2022-11-02T09:04:42.279Z,6046.72
2022-11-02T09:05:42.435Z,5509.12
2022-11-02T09:06:42.584Z,6225.92
2022-11-02T09:07:42.732Z,7639.04
2022-11-02T09:08:42.897Z,6999.04
2022-11-02T09:09:43.052Z,6748.16
2022-11-02T09:10:43.201Z,6225.92
2022-11-02T09:11:43.348Z,5498.88
2022-11-02T09:12:43.502Z,5780.48
2022-11-02T09:13:43.674Z,7495.68
2022-11-02T09:14:43.758Z,8350.72
2022-11-02T09:15:43.891Z,8145.92
2022-11-02T09:16:44.060Z,7290.88
2022-11-02T09:17:44.206Z,6799.36
2022-11-02T09:18:44.357Z,6538.24
2022-11-02T09:19:44.504Z,6031.36
2022-11-02T09:20:44.606Z,5852.16
2022-11-02T09:21:44.766Z,5662.72
2022-11-02T09:22:44.911Z,5760
2022-11-02T09:23:45.065Z,6517.76
2022-11-02T09:24:45.273Z,7147.52
2022-11-02T09:25:45.380Z,7659.52
2022-11-02T09:26:45.520Z,8417.28
2022-11-02T09:27:45.619Z,8581.12
2022-11-02T09:28:45.721Z,8386.56
2022-11-02T09:29:45.867Z,8207.36
2022-11-02T09:30:46.010Z,8064
2022-11-02T09:31:46.163Z,8509.439
2022-11-02T09:32:46.265Z,8949.76
2022-11-02T09:33:46.410Z,9789.439
2022-11-02T09:34:46.528Z,9400.319
2022-11-02T09:35:46.695Z,7833.6
2022-11-02T09:36:46.827Z,7326.72
2022-11-02T09:37:49.956Z,7459.84
2022-11-02T09:38:47.135Z,7203.84
2022-11-02T09:39:47.281Z,7106.56
2022-11-02T09:40:47.379Z,7720.96
2022-11-02T09:41:47.561Z,8698.88
2022-11-02T09:42:47.693Z,8007.68
2022-11-02T09:43:47.866Z,6584.32
2022-11-02T09:44:48.003Z,6190.08
2022-11-02T09:45:48.144Z,6533.12
2022-11-02T09:46:50.713Z,7214.08
2022-11-02T09:48:25.119Z,8693.76
2022-11-02T09:48:48.613Z,10050.56
2022-11-02T09:49:48.766Z,9359.359
2022-11-02T09:50:48.915Z,10700.8
2022-11-02T09:51:49.060Z,10997.76
2022-11-02T09:52:49.211Z,10127.359
2022-11-02T09:53:49.371Z,13803.52
2022-11-02T09:54:49.524Z,16640
2022-11-02T09:55:49.671Z,66355.2
2022-11-02T09:56:49.824Z,19804.16
2022-11-02T09:57:49.972Z,78438.4
2022-11-02T09:58:50.117Z,40345.6
2022-11-02T09:59:50.291Z,78807.04
2022-11-02T10:00:50.423Z,62955.52
2022-11-02T10:01:50.690Z,18913.28
2022-11-02T10:02:50.732Z,78766.08
2022-11-02T10:03:50.871Z,40366.08
2022-11-02T10:04:51.019Z,82124.8
2022-11-02T10:05:51.152Z,80199.68
2022-11-02T10:06:51.293Z,72007.68
2022-11-02T10:07:51.452Z,23961.6
2022-11-02T10:08:51.595Z,20674.56
2022-11-02T10:09:51.771Z,80240.64
2022-11-02T10:10:51.889Z,80691.2
2022-11-02T10:11:52.010Z,84377.6
2022-11-02T10:12:52.150Z,33669.12
2022-11-02T10:13:54.100Z,26460.16
2022-11-02T10:14:52.413Z,41328.64
2022-11-02T10:15:52.570Z,46366.72
2022-11-02T10:16:52.720Z,52510.72
2022-11-02T10:17:52.868Z,24084.48
2022-11-02T10:18:53.024Z,60661.76
2022-11-02T10:19:53.209Z,18370.56
2022-11-02T10:20:53.319Z,81920
2022-11-02T10:21:53.477Z,15933.439
2022-11-02T10:22:53.628Z,80363.52
2022-11-02T10:23:53.788Z,14366.72
2022-11-02T10:24:53.922Z,13885.439
2022-11-02T10:25:54.112Z,16926.72
2022-11-02T10:26:54.213Z,20377.6
2022-11-02T10:27:54.367Z,20838.4
2022-11-02T10:28:54.469Z,20613.12
2022-11-02T10:29:54.587Z,17274.88
2022-11-02T10:30:54.789Z,17807.36
2022-11-02T10:31:54.935Z,20060.16
2022-11-02T10:32:55.076Z,17766.4
2022-11-02T10:33:57.022Z,18841.6
2022-11-02T10:34:58.897Z,17182.72
2022-11-02T10:36:16.666Z,28774.4
2022-11-02T10:36:55.699Z,15923.199
2022-11-02T10:37:55.795Z,17899.52
2022-11-02T10:38:55.937Z,15697.92
2022-11-02T10:39:56.104Z,13711.359
2022-11-02T10:40:56.262Z,15360
2022-11-02T10:41:56.385Z,17418.24
2022-11-02T10:42:56.562Z,17479.68
2022-11-02T10:43:56.708Z,30044.16
2022-11-02T10:44:56.813Z,23306.24
2022-11-02T10:45:56.941Z,22917.12
2022-11-02T10:46:57.072Z,19118.08
2022-11-02T10:47:57.213Z,14694.399
2022-11-02T10:48:57.349Z,10915.84
2022-11-02T10:49:57.511Z,10122.24
2022-11-02T10:50:57.652Z,50790.4
2022-11-02T10:51:57.808Z,15083.52
2022-11-02T10:53:04.956Z,16435.2
2022-11-02T10:53:58.196Z,13557.76
2022-11-02T10:54:58.270Z,14049.279
2022-11-02T10:55:58.400Z,12103.68
2022-11-02T10:56:58.578Z,10163.2
2022-11-02T10:57:58.675Z,9308.16
2022-11-02T10:58:58.785Z,9871.359
2022-11-02T10:59:58.923Z,10997.76
2022-11-02T11:00:59.114Z,10449.92
2022-11-02T11:01:59.313Z,8796.16
2022-11-02T11:02:59.395Z,7362.56
2022-11-02T11:03:59.543Z,6507.52
2022-11-02T11:04:59.705Z,5867.52
2022-11-02T11:05:59.848Z,5662.72
2022-11-02T11:06:59.988Z,5437.44
2022-11-02T11:08:00.148Z,4725.76
2022-11-02T11:09:00.299Z,4743.68
2022-11-02T11:10:00.458Z,4864
2022-11-02T11:11:00.598Z,5012.48
2022-11-02T11:12:00.761Z,4631.04
2022-11-02T11:13:01.496Z,4480
2022-11-02T11:16:02.671Z,5478.4
2022-11-02T11:20:06.123Z,6292.48
2022-11-02T11:21:02.213Z,6205.44
2022-11-02T11:22:02.362Z,5591.04
2022-11-02T11:23:02.873Z,5437.44
2022-11-02T11:24:02.734Z,5621.76
2022-11-02T11:25:02.762Z,5698.56
2022-11-02T11:26:02.882Z,6343.68
2022-11-02T11:27:03.020Z,6840.32
2022-11-02T11:28:03.443Z,6896.64
2022-11-02T11:29:03.321Z,8012.8
2022-11-02T11:30:03.477Z,9548.8
2022-11-02T11:31:03.585Z,19159.04
2022-11-02T11:32:03.734Z,15493.12
2022-11-02T11:33:03.917Z,20275.2
2022-11-02T11:34:03.996Z,13946.88
2022-11-02T11:35:04.135Z,11857.92
2022-11-02T11:36:04.300Z,9328.64
2022-11-02T11:37:04.437Z,9702.399
2022-11-02T11:38:05.249Z,10424.319
2022-11-02T11:39:04.753Z,9523.2
2022-11-02T11:40:05.393Z,8878.08
2022-11-02T11:41:04.985Z,9589.76
2022-11-02T11:42:05.472Z,10752
2022-11-02T11:43:05.238Z,10833.92
2022-11-02T11:44:05.888Z,11141.12
2022-11-02T11:45:06.121Z,10700.8
2022-11-02T11:46:06.973Z,10813.439
2022-11-02T11:47:05.761Z,10234.88
2022-11-02T11:48:06.654Z,10731.52
2022-11-02T11:49:06.045Z,11745.279
2022-11-02T11:50:09.561Z,10516.479
2022-11-02T11:51:06.268Z,10234.88
2022-11-02T11:52:06.419Z,12339.2
2022-11-02T11:53:06.779Z,12820.479
2022-11-02T11:54:06.675Z,11171.84
2022-11-02T11:55:06.814Z,9584.64
2022-11-02T11:56:06.969Z,10588.16
2022-11-02T11:57:07.086Z,14448.64
2022-11-02T11:58:07.418Z,15953.92
2022-11-02T11:59:07.360Z,58941.44
2022-11-02T12:00:07.474Z,69672.96
2022-11-02T12:01:10.400Z,18073.6
2022-11-02T12:02:07.802Z,13690.88
2022-11-02T12:03:08.409Z,10670.08
2022-11-02T12:04:07.990Z,9395.2
2022-11-02T12:05:08.138Z,10577.92
2022-11-02T12:06:08.286Z,8407.04
2022-11-02T12:07:08.439Z,6528
2022-11-02T12:08:08.850Z,6410.24
2022-11-02T12:09:08.736Z,9415.68
2022-11-02T12:10:08.901Z,10516.479
2022-11-02T12:11:09.038Z,9308.16
2022-11-02T12:12:09.120Z,60784.64
2022-11-02T12:13:09.203Z,55132.16
2022-11-02T12:14:09.343Z,22794.24
2022-11-02T12:15:09.502Z,17766.4
2022-11-02T12:16:09.651Z,13506.56
2022-11-02T12:17:09.818Z,13854.72
2022-11-02T12:18:09.987Z,25600
2022-11-02T12:19:10.121Z,39096.32
2022-11-02T12:20:10.237Z,43130.88
2022-11-02T12:21:10.371Z,30289.92
2022-11-02T12:22:10.559Z,14059.52
2022-11-02T12:23:10.665Z,15360
2022-11-02T12:24:10.814Z,13424.64
2022-11-02T12:25:10.969Z,10926.08
2022-11-02T12:26:11.080Z,10439.68
2022-11-02T12:27:11.235Z,10833.92
2022-11-02T12:28:11.396Z,10844.16
2022-11-02T12:29:11.548Z,10700.8
2022-11-02T12:30:11.698Z,10803.2
2022-11-02T12:31:11.824Z,11018.24
2022-11-02T12:32:11.932Z,11264
2022-11-02T12:33:12.089Z,10915.84
2022-11-02T12:34:12.229Z,12298.239
2022-11-02T12:35:29.178Z,12902.399
2022-11-02T12:36:12.497Z,14213.12
2022-11-02T12:37:40.220Z,12738.56
2022-11-02T12:38:12.794Z,10670.08
2022-11-02T12:39:12.946Z,9963.52
2022-11-02T12:40:13.179Z,10209.279
2022-11-02T12:41:13.246Z,12001.279
2022-11-02T12:42:13.407Z,12666.88